KB0DHM Weather Reports


Display with metric or nautical units.
time (UTC)temp
F
wind
direction
speed
MPH
gust
MPH
rain 1hr
in
rain 24hr
in
rain mn
in
humidity
%
barometer
mb
20221208053056 5 91 0.0 1.0 0.00 0.02 0.02 85 1034.8
20221208051544 4 91 0.0 1.0 0.00 0.02 0.02 85 1035.0
20221208050022 2 91 0.0 1.0 0.00 0.02 0.02 84 1034.8
20221208044518 2 90 0.0 1.0 0.00 0.02 0.02 83 1035.1
20221208043101 3 319 0.0 0.0 0.00 0.02 0.02 83 1035.5
20221208041553 3 319 0.0 0.0 0.00 0.02 0.02 84 1035.6
20221208040034 3 319 0.0 0.0 0.00 0.02 0.02 83 1035.4
20221208034525 3 319 0.0 0.0 0.00 0.02 0.02 83 1035.3
20221208033004 4 319 0.0 0.0 0.00 0.02 0.02 82 1035.3
20221208031600 4 319 0.0 0.0 0.00 0.02 0.02 82 1035.2
20221208030038 4 318 0.0 0.0 0.00 0.02 0.02 82 1034.9
20221208024537 4 318 0.0 1.0 0.00 0.02 0.02 81 1035.2
20221208023021 4 70 0.0 1.0 0.00 0.02 0.02 80 1035.6
20221208021514 4 70 0.0 0.0 0.00 0.02 0.02 80 1035.6
20221208020010 4 70 0.0 0.0 0.00 0.02 0.02 79 1035.2
20221208014509 5 70 0.0 0.0 0.00 0.02 0.02 78 1035.1
20221208013004 6 70 0.0 0.0 0.00 0.02 0.02 77 1034.9
20221208011601 7 70 0.0 0.0 0.00 0.02 0.02 77 1034.9
20221208010056 8 70 0.0 1.0 0.00 0.02 0.02 76 1034.5
20221208004554 9 70 0.0 0.0 0.00 0.02 0.02 75 1034.6
20221208003039 10 70 0.0 0.0 0.00 0.02 0.02 75 1034.5
20221208001531 10 70 0.0 1.0 0.00 0.02 0.02 75 1034.4
20221208000014 11 70 0.0 1.0 0.00 0.02 0.02 74 1034.4
20221207234514 11 117 0.0 1.0 0.00 0.02 0.02 73 1034.4
20221207233057 12 117 0.0 1.0 0.00 0.02 0.02 73 1034.3
20221207231553 13 72 0.0 2.0 0.00 0.02 0.02 73 1034.0
20221207230032 13 86 0.0 2.0 0.00 0.02 0.02 72 1033.9
20221207224537 14 86 0.0 2.0 0.00 0.02 0.02 71 1034.3
20221207223017 14 85 0.0 3.0 0.00 0.02 0.02 71 1034.4
20221207221512 14 79 0.0 2.0 0.00 0.02 0.02 71 1034.3
20221207220103 14 328 0.0 2.0 0.00 0.02 0.02 71 1034.3
20221207214555 15 356 0.0 2.0 0.00 0.02 0.02 71 1034.0
20221207213035 15 79 0.0 3.0 0.00 0.02 0.02 72 1034.0
20221207211534 15 75 0.0 3.0 0.00 0.02 0.02 72 1033.9
20221207210017 15 56 0.0 3.0 0.00 0.02 0.02 72 1033.9
20221207204528 15 292 0.0 4.0 0.00 0.02 0.02 72 1033.7
20221207203056 15 78 1.0 5.0 0.00 0.02 0.02 71 1033.4
20221207201559 15 29 0.0 5.0 0.00 0.02 0.02 71 1033.3
20221207200035 15 354 1.0 6.0 0.00 0.02 0.02 72 1033.3
20221207194541 15 345 0.0 3.0 0.00 0.02 0.02 72 1033.3
20221207193013 15 326 1.0 3.0 0.00 0.02 0.02 73 1033.2
20221207191513 15 340 1.0 5.0 0.00 0.02 0.02 73 1033.3
20221207190114 15 63 0.0 5.0 0.00 0.02 0.02 75 1033.2
20221207184558 15 63 2.0 5.0 0.00 0.02 0.02 75 1033.0
20221207183055 14 69 2.0 5.0 0.00 0.02 0.02 76 1033.0
20221207181541 14 42 3.0 5.0 0.00 0.02 0.02 77 1032.9
20221207180035 14 68 2.0 6.0 0.00 0.02 0.02 79 1033.0
20221207174521 14 68 1.0 6.0 0.00 0.02 0.02 80 1032.9
20221207173017 13 82 3.0 6.0 0.00 0.02 0.02 82 1032.9
20221207171558 13 112 3.0 6.0 0.00 0.02 0.02 84 1033.0
20221207170058 12 54 1.0 5.0 0.00 0.02 0.02 85 1032.9
20221207164538 12 70 2.0 6.0 0.00 0.02 0.02 86 1033.0
20221207163038 11 63 1.0 6.0 0.00 0.02 0.02 87 1032.8
20221207161520 11 35 4.0 9.0 0.00 0.02 0.02 86 1032.9
20221207160018 11 325 0.0 4.0 0.00 0.02 0.02 87 1032.9
20221207154558 11 46 2.0 5.0 0.00 0.02 0.02 86 1032.5
20221207153056 12 30 0.0 5.0 0.00 0.02 0.02 87 1031.9
20221207151537 0 0.0 0.0 0.00 0.02 0.02 1032.0
20221207150031 0 0.0 0.0 0.00 0.02 0.02 1031.6
20221207144509 0 0.0 0.0 0.00 0.95 0.02 1031.1
20221207143005 0 0.0 0.0 0.00 0.95 0.02 1030.6
20221207141543 0 0.0 0.0 0.00 0.95 0.02 1030.3
20221207140046 0 0.0 0.0 0.00 0.95 0.02 1029.9
20221207134517 0 0.0 0.0 0.00 0.95 0.02 1029.4
20221207133013 0 0.0 0.0 0.00 0.95 0.02 1028.9
20221207131559 0 0.0 0.0 0.00 0.95 0.02 1028.3
20221207130048 0 0.0 0.0 0.00 0.95 0.02 1028.3
20221207124525 0 0.0 0.0 0.00 0.95 0.02 1028.4
20221207123024 0 0.0 0.0 0.00 0.95 0.02 1027.8
20221207121559 0 0.0 0.0 0.00 0.95 0.02 1027.3
20221207120055 0 0.0 0.0 0.00 0.95 0.02 1027.3
20221207114532 0 0.0 0.0 0.00 0.95 0.02 1027.1
20221207113035 0 0.0 0.0 0.00 0.95 0.02 1026.8
20221207111513 0 0.0 0.0 0.00 0.95 0.02 1026.8
20221207110007 0 0.0 0.0 0.00 0.95 0.02 1027.0
20221207104508 0 0.0 0.0 0.00 0.95 0.02 1027.0
20221207103100 0 0.0 0.0 0.00 0.95 0.02 1027.0
20221207101556 0 0.0 0.0 0.02 0.95 0.02 1026.7
20221207100056 0 0.0 0.0 0.02 0.95 0.02 1026.6
20221207094547 0 0.0 0.0 0.02 1.41 0.02 1026.6
20221207093042 15 360 0.0 2.0 0.02 1.41 0.02 76 1026.2
20221207091524 16 67 0.0 1.0 0.00 1.39 0.00 76 1026.0
20221207090025 17 54 0.0 4.0 0.00 1.39 0.00 75 1025.8
20221207084609 17 6 2.0 6.0 0.00 6.70 0.00 75 1025.6
20221207083057 17 58 2.0 7.0 0.00 6.70 0.00 75 1025.4
20221207081537 18 19 2.0 8.0 0.00 6.70 0.00 76 1025.2
20221207080033 18 78 1.0 5.0 0.00 6.70 0.00 75 1024.9
20221207074513 19 7 2.0 8.0 0.00 7.67 0.00 75 1024.9
20221207073009 19 285 1.0 5.0 0.00 7.67 0.00 76 1024.8
20221207071556 20 28 1.0 8.0 0.00 7.67 0.00 76 1024.4
20221207070045 20 23 0.0 5.0 0.00 7.67 0.00 76 1024.4
20221207064528 20 277 0.0 2.0 0.00 1.06 0.00 77 1024.3
20221207063025 20 68 0.0 3.0 0.00 1.06 0.00 77 1023.7
20221207061508 20 41 0.0 2.0 0.00 1.06 0.00 77 1023.6
20221207060007 21 291 0.0 0.0 0.00 1.06 0.00 77 1023.6
20221207054505 21 289 0.0 0.0 0.00 1.13 1.06 77 1023.6